createdAt,value
2023-08-20T00:01:30.478Z,84.00
2023-08-20T00:03:59.369Z,84.20
2023-08-20T00:06:28.068Z,84.40
2023-08-20T00:08:56.752Z,84.50
2023-08-20T00:11:25.462Z,84.60
2023-08-20T00:13:54.230Z,84.80
2023-08-20T00:16:23.004Z,84.80
2023-08-20T00:18:51.717Z,85.00
2023-08-20T00:21:20.484Z,85.10
2023-08-20T00:23:49.220Z,85.70
2023-08-20T00:26:18.078Z,85.60
2023-08-20T00:28:46.689Z,85.50
2023-08-20T00:31:15.399Z,85.60
2023-08-20T00:33:57.189Z,85.80
2023-08-20T00:36:14.513Z,86.00
2023-08-20T00:38:44.061Z,86.10
2023-08-20T00:41:13.046Z,86.10
2023-08-20T00:43:41.618Z,86.30
2023-08-20T00:46:11.407Z,86.30
2023-08-20T00:48:40.058Z,86.50
2023-08-20T00:51:08.706Z,86.70
2023-08-20T00:53:37.385Z,86.70
2023-08-20T00:56:06.400Z,86.60
2023-08-20T00:58:35.046Z,86.70
2023-08-20T01:01:03.630Z,86.90
2023-08-20T01:03:32.292Z,87.00
2023-08-20T01:06:02.368Z,87.10
2023-08-20T01:08:33.022Z,87.30
2023-08-20T01:11:03.320Z,87.50
2023-08-20T01:13:31.865Z,87.30
2023-08-20T01:16:00.674Z,87.30
2023-08-20T01:18:29.376Z,87.40
2023-08-20T01:20:59.454Z,87.50
2023-08-20T01:23:35.303Z,87.60
2023-08-20T01:26:11.360Z,87.50
2023-08-20T01:28:40.593Z,87.50
2023-08-20T01:31:11.452Z,87.50
2023-08-20T01:33:40.296Z,87.50
2023-08-20T01:36:11.027Z,87.50
2023-08-20T01:38:39.631Z,87.60
2023-08-20T01:41:08.252Z,87.50
2023-08-20T01:43:36.796Z,87.50
2023-08-20T01:46:05.508Z,87.50
2023-08-20T01:48:33.989Z,87.60
2023-08-20T01:51:03.213Z,87.50
2023-08-20T01:53:32.010Z,87.70
2023-08-20T01:56:02.390Z,87.70
2023-08-20T01:58:32.743Z,87.70
2023-08-20T02:01:01.393Z,87.90
2023-08-20T02:03:32.198Z,87.80
2023-08-20T02:06:00.818Z,88.10
2023-08-20T02:08:29.365Z,88.20
2023-08-20T02:11:04.371Z,88.40
2023-08-20T02:13:33.491Z,88.50
2023-08-20T02:16:03.823Z,88.70
2023-08-20T02:18:32.693Z,88.90
2023-08-20T02:21:01.473Z,88.90
2023-08-20T02:23:30.159Z,88.90
2023-08-20T02:25:58.999Z,88.90
2023-08-20T02:28:29.169Z,88.80
2023-08-20T02:30:58.503Z,88.90
2023-08-20T02:33:27.068Z,89.00
2023-08-20T02:35:55.614Z,89.10
2023-08-20T02:38:24.219Z,89.30
2023-08-20T02:40:54.297Z,89.40
2023-08-20T02:43:22.822Z,89.50
2023-08-20T02:45:51.416Z,89.60
2023-08-20T02:48:20.470Z,89.60
2023-08-20T02:50:49.016Z,89.50
2023-08-20T02:53:17.572Z,89.50
2023-08-20T02:55:46.126Z,89.50
2023-08-20T02:58:14.790Z,89.40
2023-08-20T03:00:44.888Z,89.30
2023-08-20T03:03:13.999Z,89.20
2023-08-20T03:05:43.661Z,89.20
2023-08-20T03:08:12.270Z,89.30
2023-08-20T03:10:41.067Z,89.10
2023-08-20T03:13:09.668Z,89.00
2023-08-20T03:15:38.326Z,88.80
2023-08-20T03:18:07.315Z,88.80
2023-08-20T03:20:35.923Z,88.60
2023-08-20T03:23:04.468Z,88.50
2023-08-20T03:25:33.026Z,88.30
2023-08-20T03:28:01.676Z,88.20
2023-08-20T03:30:30.417Z,88.00
2023-08-20T03:32:59.538Z,88.00
2023-08-20T03:35:28.295Z,87.90
2023-08-20T03:37:58.001Z,87.80
2023-08-20T03:40:28.208Z,87.50
2023-08-20T03:42:56.797Z,87.50
2023-08-20T03:45:26.031Z,87.40
2023-08-20T03:47:54.759Z,87.30
2023-08-20T03:50:23.328Z,87.00
2023-08-20T03:52:52.015Z,86.80
2023-08-20T03:55:20.544Z,86.70
2023-08-20T03:57:49.134Z,86.60
2023-08-20T04:00:17.795Z,86.40
2023-08-20T04:02:46.992Z,86.40
2023-08-20T04:05:15.649Z,86.20
2023-08-20T04:07:44.345Z,86.10
2023-08-20T04:10:12.956Z,86.20
2023-08-20T04:12:41.545Z,86.10
2023-08-20T04:15:10.793Z,85.80
2023-08-20T04:17:41.060Z,85.80
2023-08-20T04:20:10.816Z,85.70
2023-08-20T04:22:39.714Z,85.80
2023-08-20T04:25:08.674Z,85.60
2023-08-20T04:27:37.462Z,85.60
2023-08-20T04:30:07.383Z,85.50
2023-08-20T04:32:36.144Z,85.50
2023-08-20T04:35:05.554Z,85.70
2023-08-20T04:37:35.183Z,85.70
2023-08-20T04:40:08.822Z,85.60
2023-08-20T04:42:37.562Z,85.40
2023-08-20T04:45:07.777Z,85.50
2023-08-20T04:47:36.896Z,85.40
2023-08-20T04:50:07.525Z,85.40
2023-08-20T04:52:36.296Z,85.10
2023-08-20T04:55:05.284Z,85.20
2023-08-20T04:57:34.205Z,85.20
2023-08-20T05:00:03.864Z,85.40
2023-08-20T05:02:37.481Z,85.40
2023-08-20T05:05:06.781Z,85.40
2023-08-20T05:07:35.862Z,85.40
2023-08-20T05:10:04.668Z,85.40
2023-08-20T05:12:33.437Z,85.40
2023-08-20T05:15:02.874Z,85.40
2023-08-20T05:17:31.516Z,85.30
2023-08-20T05:20:00.284Z,85.50
2023-08-20T05:22:28.888Z,85.40
2023-08-20T05:24:57.428Z,85.50
2023-08-20T05:27:26.149Z,85.70
2023-08-20T05:29:54.704Z,85.60
2023-08-20T05:32:23.467Z,85.60
2023-08-20T05:34:52.166Z,85.80
2023-08-20T05:37:20.784Z,85.30
2023-08-20T05:39:49.384Z,84.60
2023-08-20T05:42:18.109Z,84.50
2023-08-20T05:44:48.349Z,84.50
2023-08-20T05:47:18.588Z,84.50
2023-08-20T05:49:47.310Z,84.30
2023-08-20T05:52:15.864Z,84.10
2023-08-20T05:54:44.571Z,84.10
2023-08-20T05:57:13.499Z,84.10
2023-08-20T05:59:42.942Z,84.40
2023-08-20T06:02:11.626Z,84.40
2023-08-20T06:04:40.221Z,84.00
2023-08-20T06:07:08.802Z,83.50
2023-08-20T06:09:37.408Z,83.10
2023-08-20T06:12:06.051Z,82.10
2023-08-20T06:14:34.626Z,81.90
2023-08-20T06:17:03.818Z,81.50
2023-08-20T06:19:32.442Z,81.60
2023-08-20T06:22:01.378Z,80.90
2023-08-20T06:24:29.966Z,80.90
2023-08-20T06:26:58.546Z,80.60
2023-08-20T06:29:27.262Z,80.30
2023-08-20T06:31:55.866Z,80.00
2023-08-20T06:34:24.539Z,79.90
2023-08-20T06:36:54.201Z,80.50
2023-08-20T06:39:23.348Z,80.00
2023-08-20T06:41:51.911Z,80.10
2023-08-20T06:44:23.101Z,80.10
2023-08-20T06:46:51.730Z,80.00
2023-08-20T06:49:20.381Z,79.90
2023-08-20T06:51:48.964Z,79.30
2023-08-20T06:54:17.614Z,79.70
2023-08-20T06:56:46.818Z,79.50
2023-08-20T06:59:17.606Z,79.50
2023-08-20T07:01:46.221Z,80.00
2023-08-20T07:04:15.261Z,79.20
2023-08-20T07:06:43.914Z,79.40
2023-08-20T07:09:12.577Z,79.40
2023-08-20T07:11:41.164Z,80.10
2023-08-20T07:14:09.743Z,79.40
2023-08-20T07:16:38.339Z,79.00
2023-08-20T07:19:06.906Z,78.90
2023-08-20T07:21:35.619Z,78.50
2023-08-20T07:24:04.255Z,78.40
2023-08-20T07:26:32.843Z,77.80
2023-08-20T07:29:01.445Z,78.80
2023-08-20T07:31:31.053Z,77.60
2023-08-20T07:36:31.757Z,76.80
2023-08-20T07:39:02.328Z,76.10
2023-08-20T07:41:31.537Z,77.40
2023-08-20T07:44:00.086Z,76.10
2023-08-20T07:46:28.947Z,75.40
2023-08-20T07:48:57.695Z,74.50
2023-08-20T07:51:26.357Z,73.20
2023-08-20T07:53:54.933Z,72.50
2023-08-20T07:56:23.561Z,71.50
2023-08-20T07:58:52.167Z,68.80
2023-08-20T08:01:21.029Z,69.70
2023-08-20T08:03:49.864Z,69.90
2023-08-20T08:06:19.273Z,69.50
2023-08-20T08:08:48.064Z,66.60
2023-08-20T08:11:16.754Z,66.30
2023-08-20T08:13:45.326Z,66.60
2023-08-20T08:16:14.094Z,69.10
2023-08-20T08:18:42.762Z,67.80
2023-08-20T08:21:11.410Z,67.00
2023-08-20T08:23:40.059Z,67.50
2023-08-20T08:26:08.609Z,69.00
2023-08-20T08:28:37.202Z,66.20
2023-08-20T08:31:08.144Z,66.80
2023-08-20T08:33:36.000Z,67.90
2023-08-20T08:36:04.785Z,67.20
2023-08-20T08:38:33.384Z,64.40
2023-08-20T08:41:02.649Z,65.50
2023-08-20T08:43:32.762Z,66.80
2023-08-20T08:46:03.032Z,66.40
2023-08-20T08:48:31.827Z,65.10
2023-08-20T08:51:01.091Z,64.70
2023-08-20T08:53:31.465Z,65.60
2023-08-20T08:56:00.399Z,64.20
2023-08-20T08:58:28.968Z,65.70
2023-08-20T09:00:57.529Z,65.40
2023-08-20T09:03:26.188Z,64.60
2023-08-20T09:06:01.202Z,64.60
2023-08-20T09:08:30.367Z,64.60
2023-08-20T09:10:59.586Z,63.00
2023-08-20T09:13:30.523Z,62.90
2023-08-20T09:16:00.128Z,62.60
2023-08-20T09:18:28.655Z,61.80
2023-08-20T09:20:59.147Z,61.40
2023-08-20T09:23:29.344Z,62.30
2023-08-20T09:25:57.970Z,60.50
2023-08-20T09:28:26.631Z,61.30
2023-08-20T09:30:58.750Z,60.60
2023-08-20T09:33:27.432Z,59.60
2023-08-20T09:35:56.144Z,59.30
2023-08-20T09:38:25.803Z,58.70
2023-08-20T09:40:57.209Z,58.40
2023-08-20T09:43:30.128Z,58.80
2023-08-20T09:46:00.276Z,58.70
2023-08-20T09:48:30.225Z,57.30
2023-08-20T09:51:02.014Z,59.40
2023-08-20T09:53:37.964Z,59.10
2023-08-20T09:56:14.218Z,58.10
2023-08-20T09:58:43.240Z,58.30
2023-08-20T10:01:12.303Z,59.20
2023-08-20T10:03:40.978Z,59.40
2023-08-20T10:06:10.090Z,58.70
2023-08-20T10:08:39.623Z,57.50
2023-08-20T10:11:09.077Z,57.50
2023-08-20T10:13:38.682Z,57.60
2023-08-20T10:16:07.508Z,56.80
2023-08-20T10:18:36.369Z,57.10
2023-08-20T10:21:08.235Z,57.00
2023-08-20T10:23:37.700Z,56.20
2023-08-20T10:26:11.373Z,56.90
2023-08-20T10:28:41.707Z,57.40
2023-08-20T10:31:11.343Z,58.00
2023-08-20T10:33:51.971Z,52.90
2023-08-20T10:36:26.081Z,53.40
2023-08-20T10:38:58.870Z,52.30
2023-08-20T10:41:28.370Z,54.40
2023-08-20T10:44:00.378Z,54.10
2023-08-20T10:46:31.438Z,54.60
2023-08-20T10:49:02.082Z,55.00
2023-08-20T10:51:32.309Z,55.60
2023-08-20T10:54:05.170Z,55.70
2023-08-20T10:56:46.633Z,55.90
2023-08-20T10:59:25.544Z,55.70
2023-08-20T11:01:55.780Z,56.40
2023-08-20T11:04:27.085Z,56.90
2023-08-20T11:06:56.393Z,57.50
2023-08-20T11:09:25.617Z,57.40
2023-08-20T11:11:54.348Z,57.30
2023-08-20T11:14:23.735Z,58.00
2023-08-20T11:16:52.618Z,57.60
2023-08-20T11:19:22.467Z,56.70
2023-08-20T11:21:52.038Z,56.80
2023-08-20T11:24:21.449Z,57.10
2023-08-20T11:26:50.156Z,57.40
2023-08-20T11:29:20.523Z,56.00
2023-08-20T11:31:49.874Z,55.70
2023-08-20T11:34:19.913Z,56.40
2023-08-20T11:36:49.123Z,56.70
2023-08-20T11:39:17.693Z,56.30
2023-08-20T11:41:46.714Z,56.00
2023-08-20T11:44:22.468Z,57.60
2023-08-20T11:46:51.641Z,57.20
2023-08-20T11:49:21.886Z,58.20
2023-08-20T11:51:53.465Z,57.30
2023-08-20T11:54:22.068Z,57.40
2023-08-20T11:56:51.420Z,58.00
2023-08-20T11:59:24.035Z,57.30
2023-08-20T12:02:00.914Z,58.40
2023-08-20T12:04:30.024Z,57.50
2023-08-20T12:07:11.551Z,57.60
2023-08-20T12:09:40.296Z,58.20
2023-08-20T12:12:09.417Z,59.00
2023-08-20T12:14:38.540Z,58.30
2023-08-20T12:17:07.144Z,58.40
2023-08-20T12:19:35.722Z,58.10
2023-08-20T12:22:04.640Z,58.30
2023-08-20T12:24:33.300Z,59.10
2023-08-20T12:27:01.985Z,58.80
2023-08-20T12:29:30.705Z,59.30
2023-08-20T12:31:59.995Z,59.10
2023-08-20T12:34:30.146Z,59.20
2023-08-20T12:36:58.892Z,58.10
2023-08-20T12:39:27.469Z,59.00
2023-08-20T12:41:56.132Z,59.80
2023-08-20T12:44:24.726Z,59.20
2023-08-20T12:46:53.383Z,59.50
2023-08-20T12:49:22.077Z,59.80
2023-08-20T12:51:50.650Z,60.50
2023-08-20T12:54:19.346Z,60.20
2023-08-20T12:56:48.005Z,58.40
2023-08-20T12:59:17.052Z,59.30
2023-08-20T13:01:45.729Z,59.10
2023-08-20T13:04:14.533Z,59.10
2023-08-20T13:06:43.286Z,59.10
2023-08-20T13:09:12.032Z,58.40
2023-08-20T13:11:41.327Z,59.70
2023-08-20T13:14:10.082Z,60.20
2023-08-20T13:16:38.817Z,59.00
2023-08-20T13:19:07.629Z,59.50
2023-08-20T13:21:36.267Z,59.50
2023-08-20T13:24:05.604Z,59.50
2023-08-20T13:26:34.206Z,58.70
2023-08-20T13:29:03.238Z,58.40
2023-08-20T13:31:31.877Z,58.60
2023-08-20T13:34:00.503Z,59.00
2023-08-20T13:36:29.112Z,59.50
2023-08-20T13:38:57.959Z,59.10
2023-08-20T13:41:26.685Z,59.50
2023-08-20T13:43:55.335Z,60.00
2023-08-20T13:46:23.908Z,60.00
2023-08-20T13:48:52.484Z,59.70
2023-08-20T13:51:21.125Z,59.20
2023-08-20T13:53:49.656Z,59.00
2023-08-20T13:56:18.238Z,59.10
2023-08-20T13:58:46.894Z,59.90
2023-08-20T14:01:15.653Z,59.20
2023-08-20T14:03:44.333Z,59.00
2023-08-20T14:06:13.017Z,59.60
2023-08-20T14:08:41.765Z,59.80
2023-08-20T14:11:10.350Z,58.60
2023-08-20T14:13:38.962Z,60.00
2023-08-20T14:16:07.652Z,59.10
2023-08-20T14:18:36.158Z,59.70
2023-08-20T14:21:04.714Z,59.90
2023-08-20T14:23:33.328Z,60.70
2023-08-20T14:26:01.940Z,60.00
2023-08-20T14:28:30.544Z,58.80
2023-08-20T14:31:00.994Z,59.70
2023-08-20T14:33:29.562Z,60.20
2023-08-20T14:35:58.169Z,60.30
2023-08-20T14:38:27.004Z,60.40
2023-08-20T14:40:55.555Z,60.80
2023-08-20T14:43:24.177Z,60.90
2023-08-20T14:45:52.824Z,60.80
2023-08-20T14:48:21.630Z,60.90
2023-08-20T14:50:50.789Z,61.00
2023-08-20T14:53:19.589Z,61.10
2023-08-20T14:55:48.246Z,60.60
2023-08-20T14:58:16.786Z,60.60
2023-08-20T15:00:45.475Z,60.90
2023-08-20T15:03:14.208Z,60.60
2023-08-20T15:05:43.447Z,60.90
2023-08-20T15:08:11.959Z,59.90
2023-08-20T15:10:40.587Z,61.10
2023-08-20T15:13:09.297Z,60.60
2023-08-20T15:15:38.125Z,61.00
2023-08-20T15:18:06.884Z,60.30
2023-08-20T15:20:35.476Z,60.70
2023-08-20T15:23:04.108Z,61.10
2023-08-20T15:25:32.658Z,59.80
2023-08-20T15:28:01.198Z,61.40
2023-08-20T15:30:29.821Z,60.70
2023-08-20T15:32:58.368Z,60.00
2023-08-20T15:35:26.898Z,60.30
2023-08-20T15:37:55.442Z,60.80
2023-08-20T15:40:23.991Z,60.80
2023-08-20T15:42:52.583Z,60.60
2023-08-20T15:45:21.209Z,60.70
2023-08-20T15:47:49.989Z,61.30
2023-08-20T15:50:18.555Z,61.50
2023-08-20T15:52:48.594Z,60.70
2023-08-20T15:55:17.352Z,61.30
2023-08-20T15:57:45.959Z,61.30
2023-08-20T16:00:17.628Z,61.10
2023-08-20T16:02:46.960Z,60.70
2023-08-20T16:05:15.653Z,60.70
2023-08-20T16:07:44.602Z,60.90
2023-08-20T16:10:13.203Z,61.00
2023-08-20T16:12:41.805Z,61.10
2023-08-20T16:15:11.710Z,61.20
2023-08-20T16:17:40.862Z,61.60
2023-08-20T16:20:09.969Z,61.60
2023-08-20T16:22:38.621Z,63.60
2023-08-20T16:25:07.527Z,65.20
2023-08-20T16:27:38.566Z,63.80
2023-08-20T16:30:06.833Z,63.40
2023-08-20T16:32:35.550Z,63.00
2023-08-20T16:35:04.180Z,62.60
2023-08-20T16:37:32.849Z,63.00
2023-08-20T16:40:01.351Z,62.50
2023-08-20T16:42:29.899Z,62.30
2023-08-20T16:44:58.448Z,62.40
2023-08-20T16:47:27.185Z,62.70
2023-08-20T16:49:55.776Z,62.30
2023-08-20T16:52:24.384Z,62.70
2023-08-20T16:54:54.513Z,62.80
2023-08-20T16:57:23.841Z,62.80
2023-08-20T16:59:53.192Z,62.90
2023-08-20T17:02:21.879Z,62.60
2023-08-20T17:04:50.679Z,62.80
2023-08-20T17:07:19.251Z,62.70
2023-08-20T17:09:47.827Z,62.90
2023-08-20T17:12:16.810Z,63.00
2023-08-20T17:14:45.796Z,62.90
2023-08-20T17:17:15.091Z,63.00
2023-08-20T17:19:43.659Z,63.30
2023-08-20T17:22:12.246Z,63.40
2023-08-20T17:24:40.896Z,63.60
2023-08-20T17:27:09.525Z,63.60
2023-08-20T17:29:38.556Z,63.40
2023-08-20T17:32:07.310Z,63.80
2023-08-20T17:34:36.359Z,64.10
2023-08-20T17:37:05.049Z,64.40
2023-08-20T17:39:33.618Z,64.20
2023-08-20T17:42:02.238Z,64.30
2023-08-20T17:44:30.814Z,64.20
2023-08-20T17:46:59.479Z,64.00
2023-08-20T17:49:28.068Z,64.00
2023-08-20T17:51:56.659Z,63.80
2023-08-20T17:54:25.310Z,64.10
2023-08-20T17:56:54.374Z,64.30
2023-08-20T17:59:23.051Z,64.30
2023-08-20T18:01:51.722Z,64.20
2023-08-20T18:04:20.404Z,64.70
2023-08-20T18:06:48.976Z,64.50
2023-08-20T18:09:18.681Z,64.80
2023-08-20T18:11:47.328Z,65.00
2023-08-20T18:14:15.979Z,65.20
2023-08-20T18:16:45.066Z,65.30
2023-08-20T18:19:13.616Z,65.30
2023-08-20T18:21:42.238Z,65.60
2023-08-20T18:24:10.911Z,65.60
2023-08-20T18:26:39.527Z,65.80
2023-08-20T18:29:08.575Z,66.00
2023-08-20T18:31:37.202Z,66.30
2023-08-20T18:34:07.519Z,66.30
2023-08-20T18:36:37.945Z,66.70
2023-08-20T18:39:08.193Z,66.70
2023-08-20T18:41:36.864Z,66.90
2023-08-20T18:44:05.443Z,67.20
2023-08-20T18:46:34.112Z,67.60
2023-08-20T18:49:04.718Z,68.00
2023-08-20T18:51:33.245Z,67.90
2023-08-20T18:54:01.844Z,68.00
2023-08-20T18:56:30.503Z,68.00
2023-08-20T18:58:59.128Z,68.30
2023-08-20T19:01:27.780Z,68.40
2023-08-20T19:03:56.473Z,68.30
2023-08-20T19:06:25.107Z,68.50
2023-08-20T19:08:53.982Z,69.00
2023-08-20T19:11:22.559Z,69.70
2023-08-20T19:13:52.572Z,70.00
2023-08-20T19:16:21.475Z,69.30
2023-08-20T19:18:51.902Z,69.30
2023-08-20T19:21:20.483Z,69.40
2023-08-20T19:23:50.452Z,69.80
2023-08-20T19:26:19.104Z,70.40
2023-08-20T19:28:47.667Z,70.30
2023-08-20T19:31:19.524Z,70.50
2023-08-20T19:33:48.410Z,70.60
2023-08-20T19:36:17.067Z,70.80
2023-08-20T19:38:45.617Z,70.50
2023-08-20T19:41:14.349Z,70.60
2023-08-20T19:43:42.910Z,71.00
2023-08-20T19:46:13.155Z,70.70
2023-08-20T19:48:41.758Z,70.80
2023-08-20T19:51:10.385Z,71.30
2023-08-20T19:53:40.567Z,71.90
2023-08-20T19:56:09.128Z,71.90
2023-08-20T19:58:37.684Z,72.10
2023-08-20T20:01:06.730Z,72.00
2023-08-20T20:03:35.316Z,72.10
2023-08-20T20:06:04.150Z,72.50
2023-08-20T20:08:32.699Z,72.60
2023-08-20T20:11:01.234Z,72.60
2023-08-20T20:13:30.154Z,73.20
2023-08-20T20:15:59.785Z,73.20
2023-08-20T20:18:29.415Z,73.50
2023-08-20T20:20:57.993Z,73.60
2023-08-20T20:23:26.541Z,73.60
2023-08-20T20:25:55.106Z,73.80
2023-08-20T20:28:23.690Z,74.10
2023-08-20T20:30:52.346Z,74.20
2023-08-20T20:33:20.970Z,74.10
2023-08-20T20:35:55.692Z,74.40
2023-08-20T20:38:24.581Z,74.60
2023-08-20T20:40:53.228Z,75.00
2023-08-20T20:43:23.000Z,75.10
2023-08-20T20:45:54.984Z,75.10
2023-08-20T20:48:23.681Z,75.30
2023-08-20T20:50:52.307Z,75.40
2023-08-20T20:53:20.898Z,75.60
2023-08-20T20:55:49.446Z,75.70
2023-08-20T20:58:17.997Z,75.70
2023-08-20T21:00:47.505Z,75.60
2023-08-20T21:03:16.137Z,75.70
2023-08-20T21:05:44.842Z,75.80
2023-08-20T21:08:13.526Z,75.90
2023-08-20T21:10:43.372Z,76.30
2023-08-20T21:13:13.652Z,76.50
2023-08-20T21:15:42.369Z,76.40
2023-08-20T21:18:10.969Z,76.50
2023-08-20T21:20:39.536Z,76.50
2023-08-20T21:23:08.230Z,76.50
2023-08-20T21:25:36.829Z,76.60
2023-08-20T21:28:05.551Z,76.70
2023-08-20T21:30:34.228Z,76.80
2023-08-20T21:33:02.966Z,76.80
2023-08-20T21:35:31.545Z,76.90
2023-08-20T21:38:00.085Z,77.00
2023-08-20T21:40:28.693Z,76.80
2023-08-20T21:42:57.424Z,77.00
2023-08-20T21:45:26.021Z,77.00
2023-08-20T21:47:54.638Z,77.10
2023-08-20T21:50:23.442Z,77.30
2023-08-20T21:52:51.988Z,77.30
2023-08-20T21:55:20.622Z,77.60
2023-08-20T21:57:49.156Z,77.70
2023-08-20T22:00:18.349Z,77.70
2023-08-20T22:02:47.263Z,77.70
2023-08-20T22:05:20.780Z,77.70
2023-08-20T22:07:50.747Z,77.80
2023-08-20T22:10:19.909Z,77.90
2023-08-20T22:12:48.896Z,78.30
2023-08-20T22:15:17.482Z,78.20
2023-08-20T22:17:46.296Z,78.20
2023-08-20T22:20:15.052Z,78.40
2023-08-20T22:22:43.618Z,78.50
2023-08-20T22:25:12.386Z,78.60
2023-08-20T22:27:41.708Z,78.70
2023-08-20T22:30:10.609Z,79.00
2023-08-20T22:32:39.496Z,79.10
2023-08-20T22:35:09.331Z,79.30
2023-08-20T22:37:38.447Z,79.40
2023-08-20T22:40:08.600Z,79.40
2023-08-20T22:42:37.769Z,79.70
2023-08-20T22:45:07.016Z,79.60
2023-08-20T22:47:35.649Z,79.90
2023-08-20T22:50:04.727Z,79.90
2023-08-20T22:52:33.375Z,80.00
2023-08-20T22:55:02.051Z,79.90
2023-08-20T22:57:30.648Z,80.10
2023-08-20T22:59:59.323Z,80.10
2023-08-20T23:02:27.965Z,80.40
2023-08-20T23:04:56.786Z,80.40
2023-08-20T23:07:25.528Z,80.40
2023-08-20T23:09:55.097Z,80.10
2023-08-20T23:12:24.120Z,80.00
2023-08-20T23:14:55.716Z,79.90
2023-08-20T23:17:24.355Z,79.90
2023-08-20T23:19:53.077Z,79.90
2023-08-20T23:22:22.765Z,80.20
2023-08-20T23:24:51.343Z,80.30
2023-08-20T23:27:20.549Z,80.40
2023-08-20T23:29:49.129Z,80.40
2023-08-20T23:32:17.808Z,80.30
2023-08-20T23:34:46.366Z,80.40
2023-08-20T23:37:15.022Z,80.60
2023-08-20T23:39:43.602Z,80.60
2023-08-20T23:42:12.254Z,80.40
2023-08-20T23:44:40.925Z,80.30
2023-08-20T23:47:09.736Z,80.10
2023-08-20T23:49:38.410Z,80.00
2023-08-20T23:52:07.060Z,80.10
2023-08-20T23:54:35.727Z,80.10
2023-08-20T23:57:04.368Z,80.00
2023-08-20T23:59:32.938Z,80.20
